Главная страница
METAR-TAF:

METAR-TAF

Аэропорты :

Кристиансунн, Норвегия

широта: 63-07N, долгота: 007-50E, высота над уровнем моря: 6 м

Текущие метеонаблюдения

Эта сводка был подготовлена 23 минут назад, в 21:20 UTC
Ветер 11 Узел от юго-юго-восточный, изменяющийся между восточно-юго-восточный и южный-юго-западный
Температура 17°C
Влажность 39%
Давление 1013 hPa
Видимость 10 км и более

METAR: ENKB 252120Z AUTO 15011KT 110V210 9999 FEW220/// 17/03 Q1013 RMK WIND 745FT 16027KT

Время: 23:43 (21:43 UTC)

Прогноз

Эта сводка был подготовлена 4 часа и 43 минут назад, в 17:00 UTC
Прогноз действительный с 25-го 18 UTC до 25-го 21 UTC
Ветер 8 Узел от юго-восточный
Видимость 10 км и более
Нет облачности ниже 1500 м, и нет кучево-дождевой облачности

TAF: ENKB 251700Z 2518/2521 13008KT CAVOK

Метеонаблюдения и прогнозы для более 4000 аэропортов (сводки METAR и TAF).

Имеющиеся станции представлены на карте желтыми и красными точками.

Чтобы увидеть название станции, наведите на нее мышь.

Затем щелкните, чтобы увидеть метеонаблюдения и метеопрогнозы.

Управление картой: чтобы увеличить масштаб, щелкните зеленые кнопки с черным крестиком; чтобы уменьшить масштаб, щелкните зеленую кнопку с тире; для просмотра соседних карт щелкайте зеленые стрелки.


METAR-TAF: